sensor_id;sensor_type;location;lat;lon;timestamp;pressure;altitude;pressure_sealevel;temperature;humidity
13209;BME280;6669;42.678;23.332;2023-02-03T00:01:18;94754.97;;;1.67;100.00
13209;BME280;6669;42.678;23.332;2023-02-03T00:03:46;94775.34;;;1.57;100.00
13209;BME280;6669;42.678;23.332;2023-02-03T00:06:16;94756.09;;;1.51;100.00
13209;BME280;6669;42.678;23.332;2023-02-03T00:08:44;94754.69;;;1.47;100.00
13209;BME280;6669;42.678;23.332;2023-02-03T00:11:12;94767.94;;;1.41;100.00
13209;BME280;6669;42.678;23.332;2023-02-03T00:13:40;94747.91;;;1.35;100.00
13209;BME280;6669;42.678;23.332;2023-02-03T00:16:08;94760.34;;;1.28;100.00
13209;BME280;6669;42.678;23.332;2023-02-03T00:18:36;94760.91;;;1.20;100.00
13209;BME280;6669;42.678;23.332;2023-02-03T00:21:04;94758.22;;;1.22;100.00
13209;BME280;6669;42.678;23.332;2023-02-03T00:23:34;94753.72;;;1.25;100.00
13209;BME280;6669;42.678;23.332;2023-02-03T00:26:06;94747.19;;;1.21;100.00
13209;BME280;6669;42.678;23.332;2023-02-03T00:28:34;94760.44;;;1.15;100.00
13209;BME280;6669;42.678;23.332;2023-02-03T00:31:03;94751.91;;;1.03;100.00
13209;BME280;6669;42.678;23.332;2023-02-03T00:33:31;94756.91;;;1.05;100.00
13209;BME280;6669;42.678;23.332;2023-02-03T00:36:03;94766.78;;;0.98;100.00
13209;BME280;6669;42.678;23.332;2023-02-03T00:38:31;94758.25;;;0.97;100.00
13209;BME280;6669;42.678;23.332;2023-02-03T00:41:01;94783.97;;;0.96;100.00
13209;BME280;6669;42.678;23.332;2023-02-03T00:43:29;94758.81;;;0.90;100.00
13209;BME280;6669;42.678;23.332;2023-02-03T00:45:57;94767.53;;;0.87;100.00
13209;BME280;6669;42.678;23.332;2023-02-03T00:48:25;94776.94;;;0.87;100.00
13209;BME280;6669;42.678;23.332;2023-02-03T00:50:53;94766.50;;;0.90;100.00
13209;BME280;6669;42.678;23.332;2023-02-03T00:53:20;94763.94;;;0.90;100.00
13209;BME280;6669;42.678;23.332;2023-02-03T00:55:49;94768.31;;;0.88;100.00
13209;BME280;6669;42.678;23.332;2023-02-03T00:58:19;94768.44;;;0.86;100.00
13209;BME280;6669;42.678;23.332;2023-02-03T01:00:47;94772.91;;;0.95;100.00
13209;BME280;6669;42.678;23.332;2023-02-03T01:03:15;94777.81;;;0.98;100.00
13209;BME280;6669;42.678;23.332;2023-02-03T01:05:43;94765.81;;;0.99;100.00
13209;BME280;6669;42.678;23.332;2023-02-03T01:08:11;94793.16;;;0.98;100.00
13209;BME280;6669;42.678;23.332;2023-02-03T01:10:39;94792.19;;;0.88;100.00
13209;BME280;6669;42.678;23.332;2023-02-03T01:13:07;94787.72;;;0.79;100.00
13209;BME280;6669;42.678;23.332;2023-02-03T01:15:36;94787.00;;;0.77;100.00
13209;BME280;6669;42.678;23.332;2023-02-03T01:18:04;94779.66;;;0.72;100.00
13209;BME280;6669;42.678;23.332;2023-02-03T01:20:32;94796.03;;;0.70;100.00
13209;BME280;6669;42.678;23.332;2023-02-03T01:23:00;94790.13;;;0.69;100.00
13209;BME280;6669;42.678;23.332;2023-02-03T01:25:28;94779.53;;;0.74;100.00
13209;BME280;6669;42.678;23.332;2023-02-03T01:27:55;94776.41;;;0.70;100.00
13209;BME280;6669;42.678;23.332;2023-02-03T01:30:23;94755.09;;;0.70;100.00
13209;BME280;6669;42.678;23.332;2023-02-03T01:32:54;94767.28;;;0.66;100.00
13209;BME280;6669;42.678;23.332;2023-02-03T01:35:22;94774.03;;;0.67;100.00
13209;BME280;6669;42.678;23.332;2023-02-03T01:37:50;94790.66;;;0.61;100.00
13209;BME280;6669;42.678;23.332;2023-02-03T01:40:18;94782.97;;;0.61;100.00
13209;BME280;6669;42.678;23.332;2023-02-03T01:42:46;94788.28;;;0.58;100.00
13209;BME280;6669;42.678;23.332;2023-02-03T01:45:14;94798.75;;;0.55;100.00
13209;BME280;6669;42.678;23.332;2023-02-03T01:47:45;94811.22;;;0.60;100.00
13209;BME280;6669;42.678;23.332;2023-02-03T01:50:18;94799.34;;;0.59;100.00
13209;BME280;6669;42.678;23.332;2023-02-03T01:52:50;94801.06;;;0.58;100.00
13209;BME280;6669;42.678;23.332;2023-02-03T01:55:23;94826.88;;;0.55;100.00
13209;BME280;6669;42.678;23.332;2023-02-03T01:57:57;94810.81;;;0.53;100.00
13209;BME280;6669;42.678;23.332;2023-02-03T02:00:27;94813.97;;;0.57;100.00
13209;BME280;6669;42.678;23.332;2023-02-03T02:02:58;94805.38;;;0.58;100.00
13209;BME280;6669;42.678;23.332;2023-02-03T02:05:32;94808.66;;;0.60;100.00
13209;BME280;6669;42.678;23.332;2023-02-03T02:08:02;94816.94;;;0.63;100.00
13209;BME280;6669;42.678;23.332;2023-02-03T02:10:31;94825.53;;;0.62;100.00
13209;BME280;6669;42.678;23.332;2023-02-03T02:13:01;94813.69;;;0.61;100.00
13209;BME280;6669;42.678;23.332;2023-02-03T02:15:36;94817.88;;;0.62;100.00
13209;BME280;6669;42.678;23.332;2023-02-03T02:18:20;94824.72;;;0.62;100.00
13209;BME280;6669;42.678;23.332;2023-02-03T02:21:17;94834.84;;;0.63;100.00
13209;BME280;6669;42.678;23.332;2023-02-03T02:26:56;94827.06;;;0.65;100.00
13209;BME280;6669;42.678;23.332;2023-02-03T02:32:46;94825.22;;;0.67;100.00
13209;BME280;6669;42.678;23.332;2023-02-03T02:35:20;94829.28;;;0.70;100.00
13209;BME280;6669;42.678;23.332;2023-02-03T02:37:54;94833.22;;;0.62;100.00
13209;BME280;6669;42.678;23.332;2023-02-03T02:40:27;94838.66;;;0.58;100.00
13209;BME280;6669;42.678;23.332;2023-02-03T02:43:05;94845.19;;;0.62;100.00
13209;BME280;6669;42.678;23.332;2023-02-03T02:45:42;94844.03;;;0.66;100.00
13209;BME280;6669;42.678;23.332;2023-02-03T02:48:18;94838.91;;;0.66;100.00
13209;BME280;6669;42.678;23.332;2023-02-03T02:50:48;94840.78;;;0.64;100.00
13209;BME280;6669;42.678;23.332;2023-02-03T02:53:20;94855.59;;;0.72;100.00
13209;BME280;6669;42.678;23.332;2023-02-03T02:55:51;94859.06;;;0.71;100.00
13209;BME280;6669;42.678;23.332;2023-02-03T02:58:20;94863.28;;;0.72;100.00
13209;BME280;6669;42.678;23.332;2023-02-03T03:00:49;94851.63;;;0.68;100.00
13209;BME280;6669;42.678;23.332;2023-02-03T03:03:20;94853.47;;;0.65;100.00
13209;BME280;6669;42.678;23.332;2023-02-03T03:05:53;94858.69;;;0.64;100.00
13209;BME280;6669;42.678;23.332;2023-02-03T03:08:26;94869.84;;;0.63;100.00
13209;BME280;6669;42.678;23.332;2023-02-03T03:10:58;94878.53;;;0.60;100.00
13209;BME280;6669;42.678;23.332;2023-02-03T03:13:31;94870.88;;;0.60;100.00
13209;BME280;6669;42.678;23.332;2023-02-03T03:16:02;94865.63;;;0.62;100.00
13209;BME280;6669;42.678;23.332;2023-02-03T03:18:38;94873.19;;;0.63;100.00
13209;BME280;6669;42.678;23.332;2023-02-03T03:21:12;94884.38;;;0.62;100.00
13209;BME280;6669;42.678;23.332;2023-02-03T03:23:44;94886.94;;;0.62;100.00
13209;BME280;6669;42.678;23.332;2023-02-03T03:26:18;94884.38;;;0.62;100.00
13209;BME280;6669;42.678;23.332;2023-02-03T03:28:51;94871.06;;;0.57;100.00
13209;BME280;6669;42.678;23.332;2023-02-03T03:31:21;94874.47;;;0.58;100.00
13209;BME280;6669;42.678;23.332;2023-02-03T03:33:50;94875.97;;;0.60;100.00
13209;BME280;6669;42.678;23.332;2023-02-03T03:36:24;94890.00;;;0.55;100.00
13209;BME280;6669;42.678;23.332;2023-02-03T03:38:58;94879.88;;;0.53;100.00
13209;BME280;6669;42.678;23.332;2023-02-03T03:41:36;94868.22;;;0.49;100.00
13209;BME280;6669;42.678;23.332;2023-02-03T03:44:10;94896.88;;;0.54;100.00
13209;BME280;6669;42.678;23.332;2023-02-03T03:46:44;94891.97;;;0.51;100.00
13209;BME280;6669;42.678;23.332;2023-02-03T03:49:18;94893.81;;;0.49;100.00
13209;BME280;6669;42.678;23.332;2023-02-03T03:51:50;94874.38;;;0.46;100.00
13209;BME280;6669;42.678;23.332;2023-02-03T03:54:21;94868.53;;;0.44;100.00
13209;BME280;6669;42.678;23.332;2023-02-03T03:56:53;94872.84;;;0.44;100.00
13209;BME280;6669;42.678;23.332;2023-02-03T03:59:26;94874.47;;;0.45;100.00
13209;BME280;6669;42.678;23.332;2023-02-03T04:01:56;94883.47;;;0.38;100.00
13209;BME280;6669;42.678;23.332;2023-02-03T04:04:33;94868.13;;;0.38;100.00
13209;BME280;6669;42.678;23.332;2023-02-03T04:07:02;94875.59;;;0.41;100.00
13209;BME280;6669;42.678;23.332;2023-02-03T04:09:30;94883.38;;;0.39;100.00
13209;BME280;6669;42.678;23.332;2023-02-03T04:12:02;94876.72;;;0.37;100.00
13209;BME280;6669;42.678;23.332;2023-02-03T04:14:33;94891.16;;;0.38;100.00
13209;BME280;6669;42.678;23.332;2023-02-03T04:17:03;94899.53;;;0.40;100.00
13209;BME280;6669;42.678;23.332;2023-02-03T04:19:33;94889.50;;;0.37;100.00
13209;BME280;6669;42.678;23.332;2023-02-03T04:22:00;94899.94;;;0.34;100.00
13209;BME280;6669;42.678;23.332;2023-02-03T04:24:28;94913.97;;;0.41;100.00
13209;BME280;6669;42.678;23.332;2023-02-03T04:26:56;94928.59;;;0.39;100.00
13209;BME280;6669;42.678;23.332;2023-02-03T04:29:24;94927.66;;;0.40;100.00
13209;BME280;6669;42.678;23.332;2023-02-03T04:31:52;94936.03;;;0.42;100.00
13209;BME280;6669;42.678;23.332;2023-02-03T04:34:20;94930.22;;;0.40;100.00
13209;BME280;6669;42.678;23.332;2023-02-03T04:36:49;94940.13;;;0.44;100.00
13209;BME280;6669;42.678;23.332;2023-02-03T04:39:17;94933.06;;;0.48;100.00
13209;BME280;6669;42.678;23.332;2023-02-03T04:41:45;94947.41;;;0.51;100.00
13209;BME280;6669;42.678;23.332;2023-02-03T04:44:13;94954.78;;;0.42;100.00
13209;BME280;6669;42.678;23.332;2023-02-03T04:46:41;94947.72;;;0.46;100.00
13209;BME280;6669;42.678;23.332;2023-02-03T04:49:09;94964.19;;;0.55;100.00
13209;BME280;6669;42.678;23.332;2023-02-03T04:51:37;94966.22;;;0.49;100.00
13209;BME280;6669;42.678;23.332;2023-02-03T04:54:07;94956.00;;;0.49;100.00
13209;BME280;6669;42.678;23.332;2023-02-03T04:56:35;94955.41;;;0.46;100.00
13209;BME280;6669;42.678;23.332;2023-02-03T04:59:03;94960.09;;;0.52;100.00
13209;BME280;6669;42.678;23.332;2023-02-03T05:01:31;94965.94;;;0.54;100.00
13209;BME280;6669;42.678;23.332;2023-02-03T05:03:59;94972.88;;;0.52;100.00
13209;BME280;6669;42.678;23.332;2023-02-03T05:06:28;94985.25;;;0.58;100.00
13209;BME280;6669;42.678;23.332;2023-02-03T05:08:57;94984.03;;;0.51;100.00
13209;BME280;6669;42.678;23.332;2023-02-03T05:11:27;94982.63;;;0.60;100.00
13209;BME280;6669;42.678;23.332;2023-02-03T05:13:55;94991.00;;;0.62;100.00
13209;BME280;6669;42.678;23.332;2023-02-03T05:16:24;94978.94;;;0.64;100.00
13209;BME280;6669;42.678;23.332;2023-02-03T05:18:52;94986.59;;;0.64;100.00
13209;BME280;6669;42.678;23.332;2023-02-03T05:21:20;94996.72;;;0.65;100.00
13209;BME280;6669;42.678;23.332;2023-02-03T05:23:48;94999.97;;;0.55;100.00
13209;BME280;6669;42.678;23.332;2023-02-03T05:26:16;95000.19;;;0.52;100.00
13209;BME280;6669;42.678;23.332;2023-02-03T05:28:45;94993.25;;;0.54;100.00
13209;BME280;6669;42.678;23.332;2023-02-03T05:31:13;94990.38;;;0.45;100.00
13209;BME280;6669;42.678;23.332;2023-02-03T05:33:45;94998.78;;;0.47;100.00
13209;BME280;6669;42.678;23.332;2023-02-03T05:36:12;94996.31;;;0.46;100.00
13209;BME280;6669;42.678;23.332;2023-02-03T05:38:40;94992.53;;;0.39;100.00
13209;BME280;6669;42.678;23.332;2023-02-03T05:41:09;94991.69;;;0.38;100.00
13209;BME280;6669;42.678;23.332;2023-02-03T05:43:57;94992.69;;;0.36;100.00
13209;BME280;6669;42.678;23.332;2023-02-03T05:46:25;94998.75;;;0.35;100.00
13209;BME280;6669;42.678;23.332;2023-02-03T05:48:53;95005.31;;;0.39;100.00
13209;BME280;6669;42.678;23.332;2023-02-03T05:51:21;94990.34;;;0.32;100.00
13209;BME280;6669;42.678;23.332;2023-02-03T05:53:49;95001.59;;;0.30;100.00
13209;BME280;6669;42.678;23.332;2023-02-03T05:56:16;95008.47;;;0.29;100.00
13209;BME280;6669;42.678;23.332;2023-02-03T05:58:44;95009.56;;;0.25;100.00
13209;BME280;6669;42.678;23.332;2023-02-03T06:01:14;95014.59;;;0.27;100.00
13209;BME280;6669;42.678;23.332;2023-02-03T06:03:42;95005.19;;;0.27;100.00
13209;BME280;6669;42.678;23.332;2023-02-03T06:06:11;95023.09;;;0.27;100.00
13209;BME280;6669;42.678;23.332;2023-02-03T06:08:39;95021.66;;;0.23;100.00
13209;BME280;6669;42.678;23.332;2023-02-03T06:11:08;95011.22;;;0.26;100.00
13209;BME280;6669;42.678;23.332;2023-02-03T06:13:36;95017.84;;;0.29;100.00
13209;BME280;6669;42.678;23.332;2023-02-03T06:16:05;95024.00;;;0.26;100.00
13209;BME280;6669;42.678;23.332;2023-02-03T06:18:34;95020.22;;;0.32;100.00
13209;BME280;6669;42.678;23.332;2023-02-03T06:21:02;95013.59;;;0.29;100.00
13209;BME280;6669;42.678;23.332;2023-02-03T06:23:31;95028.50;;;0.36;100.00
13209;BME280;6669;42.678;23.332;2023-02-03T06:25:59;95047.88;;;0.40;100.00
13209;BME280;6669;42.678;23.332;2023-02-03T06:28:28;95035.16;;;0.38;100.00
13209;BME280;6669;42.678;23.332;2023-02-03T06:30:59;95041.41;;;0.47;100.00
13209;BME280;6669;42.678;23.332;2023-02-03T06:33:27;95037.03;;;0.49;100.00
13209;BME280;6669;42.678;23.332;2023-02-03T06:35:57;95038.78;;;0.48;100.00
13209;BME280;6669;42.678;23.332;2023-02-03T06:38:25;95054.31;;;0.58;100.00
13209;BME280;6669;42.678;23.332;2023-02-03T06:40:54;95055.88;;;0.61;100.00
13209;BME280;6669;42.678;23.332;2023-02-03T06:43:22;95058.13;;;0.65;100.00
13209;BME280;6669;42.678;23.332;2023-02-03T06:45:50;95083.00;;;0.76;100.00
13209;BME280;6669;42.678;23.332;2023-02-03T06:48:18;95074.75;;;0.86;100.00
13209;BME280;6669;42.678;23.332;2023-02-03T06:50:46;95071.97;;;0.89;100.00
13209;BME280;6669;42.678;23.332;2023-02-03T06:53:17;95087.84;;;0.94;100.00
13209;BME280;6669;42.678;23.332;2023-02-03T06:55:46;95081.50;;;1.00;100.00
13209;BME280;6669;42.678;23.332;2023-02-03T06:58:15;95090.50;;;1.05;100.00
13209;BME280;6669;42.678;23.332;2023-02-03T07:00:43;95062.22;;;1.07;100.00
13209;BME280;6669;42.678;23.332;2023-02-03T07:03:11;95065.22;;;1.01;100.00
13209;BME280;6669;42.678;23.332;2023-02-03T07:05:39;95077.41;;;1.10;100.00
13209;BME280;6669;42.678;23.332;2023-02-03T07:08:07;95063.06;;;1.07;100.00
13209;BME280;6669;42.678;23.332;2023-02-03T07:10:37;95074.00;;;1.09;100.00
13209;BME280;6669;42.678;23.332;2023-02-03T07:13:05;95069.91;;;1.07;100.00
13209;BME280;6669;42.678;23.332;2023-02-03T07:15:34;95064.72;;;1.08;100.00
13209;BME280;6669;42.678;23.332;2023-02-03T07:18:03;95065.31;;;1.12;100.00
13209;BME280;6669;42.678;23.332;2023-02-03T07:20:31;95052.00;;;1.07;100.00
13209;BME280;6669;42.678;23.332;2023-02-03T07:22:59;95076.16;;;1.03;100.00
13209;BME280;6669;42.678;23.332;2023-02-03T07:25:27;95056.09;;;0.96;100.00
13209;BME280;6669;42.678;23.332;2023-02-03T07:27:58;95072.06;;;1.13;100.00
13209;BME280;6669;42.678;23.332;2023-02-03T07:30:28;95077.81;;;1.17;100.00
13209;BME280;6669;42.678;23.332;2023-02-03T07:32:57;95074.94;;;1.21;100.00
13209;BME280;6669;42.678;23.332;2023-02-03T07:35:30;95084.06;;;1.25;100.00
13209;BME280;6669;42.678;23.332;2023-02-03T07:38:00;95082.63;;;1.21;100.00
13209;BME280;6669;42.678;23.332;2023-02-03T07:40:30;95068.19;;;1.20;100.00
13209;BME280;6669;42.678;23.332;2023-02-03T07:43:00;95066.75;;;1.29;100.00
13209;BME280;6669;42.678;23.332;2023-02-03T07:45:28;95084.16;;;1.37;100.00
13209;BME280;6669;42.678;23.332;2023-02-03T07:47:56;95107.09;;;1.25;100.00
13209;BME280;6669;42.678;23.332;2023-02-03T07:50:24;95093.56;;;1.23;100.00
13209;BME280;6669;42.678;23.332;2023-02-03T07:53:01;95129.34;;;1.25;100.00
13209;BME280;6669;42.678;23.332;2023-02-03T07:55:29;95096.34;;;1.20;100.00
13209;BME280;6669;42.678;23.332;2023-02-03T07:58:15;95069.50;;;1.26;100.00
13209;BME280;6669;42.678;23.332;2023-02-03T08:00:49;95093.06;;;1.31;100.00
13209;BME280;6669;42.678;23.332;2023-02-03T08:03:17;95096.84;;;1.38;100.00
13209;BME280;6669;42.678;23.332;2023-02-03T08:05:46;95092.44;;;1.40;100.00
13209;BME280;6669;42.678;23.332;2023-02-03T08:08:15;95094.00;;;1.30;100.00
13209;BME280;6669;42.678;23.332;2023-02-03T08:10:45;95111.50;;;1.36;100.00
13209;BME280;6669;42.678;23.332;2023-02-03T08:13:16;95089.06;;;1.27;100.00
13209;BME280;6669;42.678;23.332;2023-02-03T08:15:44;95078.72;;;1.28;100.00
13209;BME280;6669;42.678;23.332;2023-02-03T08:18:12;95103.72;;;1.51;100.00
13209;BME280;6669;42.678;23.332;2023-02-03T08:20:40;95106.16;;;1.52;100.00
13209;BME280;6669;42.678;23.332;2023-02-03T08:23:09;95097.44;;;1.55;100.00
13209;BME280;6669;42.678;23.332;2023-02-03T08:25:38;95130.63;;;1.56;100.00
13209;BME280;6669;42.678;23.332;2023-02-03T08:28:08;95087.84;;;1.45;100.00
13209;BME280;6669;42.678;23.332;2023-02-03T08:30:41;95106.16;;;1.52;100.00
13209;BME280;6669;42.678;23.332;2023-02-03T08:33:09;95114.84;;;1.62;100.00
13209;BME280;6669;42.678;23.332;2023-02-03T08:35:37;95113.00;;;1.77;100.00
13209;BME280;6669;42.678;23.332;2023-02-03T08:38:06;95136.88;;;1.78;100.00
13209;BME280;6669;42.678;23.332;2023-02-03T08:40:35;95127.56;;;1.77;100.00
13209;BME280;6669;42.678;23.332;2023-02-03T08:43:05;95143.22;;;1.85;100.00
13209;BME280;6669;42.678;23.332;2023-02-03T08:45:35;95131.81;;;1.89;100.00
13209;BME280;6669;42.678;23.332;2023-02-03T08:48:05;95137.25;;;1.98;100.00
13209;BME280;6669;42.678;23.332;2023-02-03T08:50:34;95143.06;;;2.00;100.00
13209;BME280;6669;42.678;23.332;2023-02-03T08:53:02;95129.94;;;2.04;100.00
13209;BME280;6669;42.678;23.332;2023-02-03T08:55:32;95142.00;;;2.15;100.00
13209;BME280;6669;42.678;23.332;2023-02-03T08:58:00;95147.78;;;2.06;100.00
13209;BME280;6669;42.678;23.332;2023-02-03T09:00:29;95136.53;;;1.95;100.00
13209;BME280;6669;42.678;23.332;2023-02-03T09:02:57;95158.44;;;2.00;100.00
13209;BME280;6669;42.678;23.332;2023-02-03T09:05:28;95147.97;;;2.16;100.00
13209;BME280;6669;42.678;23.332;2023-02-03T09:07:57;95143.91;;;2.00;100.00
13209;BME280;6669;42.678;23.332;2023-02-03T09:10:25;95146.59;;;1.99;100.00
13209;BME280;6669;42.678;23.332;2023-02-03T09:12:55;95144.94;;;1.98;100.00
13209;BME280;6669;42.678;23.332;2023-02-03T09:15:23;95126.66;;;2.02;100.00
13209;BME280;6669;42.678;23.332;2023-02-03T09:17:52;95130.75;;;2.05;100.00
13209;BME280;6669;42.678;23.332;2023-02-03T09:20:23;95153.97;;;1.90;100.00
13209;BME280;6669;42.678;23.332;2023-02-03T09:22:56;95131.19;;;1.86;100.00
13209;BME280;6669;42.678;23.332;2023-02-03T09:25:25;95127.69;;;2.00;100.00
13209;BME280;6669;42.678;23.332;2023-02-03T09:27:53;95149.91;;;2.12;100.00
13209;BME280;6669;42.678;23.332;2023-02-03T09:30:21;95165.84;;;2.04;100.00
13209;BME280;6669;42.678;23.332;2023-02-03T09:32:58;95140.00;;;2.32;100.00
13209;BME280;6669;42.678;23.332;2023-02-03T09:35:34;95155.69;;;2.40;100.00
13209;BME280;6669;42.678;23.332;2023-02-03T09:38:12;95144.06;;;2.71;100.00
13209;BME280;6669;42.678;23.332;2023-02-03T09:40:41;95113.78;;;2.99;100.00
13209;BME280;6669;42.678;23.332;2023-02-03T09:43:28;95127.03;;;3.17;100.00
13209;BME280;6669;42.678;23.332;2023-02-03T09:46:02;95132.88;;;2.84;100.00
13209;BME280;6669;42.678;23.332;2023-02-03T09:48:36;95136.72;;;2.78;100.00
13209;BME280;6669;42.678;23.332;2023-02-03T09:51:16;95125.13;;;3.08;100.00
13209;BME280;6669;42.678;23.332;2023-02-03T09:53:53;95125.34;;;3.05;100.00
13209;BME280;6669;42.678;23.332;2023-02-03T09:56:26;95123.41;;;3.20;100.00
13209;BME280;6669;42.678;23.332;2023-02-03T09:58:55;95113.59;;;3.25;100.00
13209;BME280;6669;42.678;23.332;2023-02-03T10:01:26;95094.81;;;3.47;100.00
13209;BME280;6669;42.678;23.332;2023-02-03T10:03:59;95119.78;;;3.22;100.00
13209;BME280;6669;42.678;23.332;2023-02-03T10:06:35;95107.41;;;3.16;100.00
13209;BME280;6669;42.678;23.332;2023-02-03T10:09:16;95119.13;;;3.54;100.00
13209;BME280;6669;42.678;23.332;2023-02-03T10:12:00;95090.47;;;3.82;100.00
13209;BME280;6669;42.678;23.332;2023-02-03T10:14:44;95096.38;;;4.16;100.00
13209;BME280;6669;42.678;23.332;2023-02-03T10:17:26;95108.63;;;4.35;100.00
13209;BME280;6669;42.678;23.332;2023-02-03T10:20:03;95117.59;;;3.97;100.00
13209;BME280;6669;42.678;23.332;2023-02-03T10:22:40;95107.50;;;4.49;100.00
13209;BME280;6669;42.678;23.332;2023-02-03T10:25:16;95113.84;;;4.34;100.00
13209;BME280;6669;42.678;23.332;2023-02-03T10:27:47;95097.31;;;4.15;100.00
13209;BME280;6669;42.678;23.332;2023-02-03T10:30:20;95119.69;;;3.47;100.00
13209;BME280;6669;42.678;23.332;2023-02-03T10:32:50;95096.75;;;2.98;100.00
13209;BME280;6669;42.678;23.332;2023-02-03T10:35:24;95118.94;;;3.10;100.00
13209;BME280;6669;42.678;23.332;2023-02-03T10:37:57;95096.84;;;2.85;100.00
13209;BME280;6669;42.678;23.332;2023-02-03T10:40:28;95092.50;;;2.86;100.00
13209;BME280;6669;42.678;23.332;2023-02-03T10:42:57;95101.91;;;3.09;100.00
13209;BME280;6669;42.678;23.332;2023-02-03T10:45:43;95103.41;;;3.01;100.00
13209;BME280;6669;42.678;23.332;2023-02-03T10:48:14;95096.84;;;2.85;100.00
13209;BME280;6669;42.678;23.332;2023-02-03T10:50:47;95115.72;;;2.84;100.00
13209;BME280;6669;42.678;23.332;2023-02-03T10:53:21;95108.16;;;2.83;100.00
13209;BME280;6669;42.678;23.332;2023-02-03T10:56:01;95076.91;;;2.65;100.00
13209;BME280;6669;42.678;23.332;2023-02-03T10:58:31;95104.09;;;2.56;100.00
13209;BME280;6669;42.678;23.332;2023-02-03T11:01:09;95094.84;;;2.53;100.00
13209;BME280;6669;42.678;23.332;2023-02-03T11:03:40;95097.03;;;2.47;97.33
13209;BME280;6669;42.678;23.332;2023-02-03T11:06:12;95097.63;;;2.50;96.28
13209;BME280;6669;42.678;23.332;2023-02-03T11:08:43;95090.66;;;2.52;97.43
13209;BME280;6669;42.678;23.332;2023-02-03T11:11:22;95074.88;;;2.92;97.05
13209;BME280;6669;42.678;23.332;2023-02-03T11:13:55;95091.66;;;3.66;93.23
13209;BME280;6669;42.678;23.332;2023-02-03T11:16:37;95090.28;;;4.17;90.58
13209;BME280;6669;42.678;23.332;2023-02-03T11:19:15;95078.84;;;4.42;90.52
13209;BME280;6669;42.678;23.332;2023-02-03T11:21:46;95080.94;;;4.16;87.69
13209;BME280;6669;42.678;23.332;2023-02-03T11:24:19;95092.69;;;4.30;87.07
13209;BME280;6669;42.678;23.332;2023-02-03T11:26:51;95092.81;;;4.29;83.83
13209;BME280;6669;42.678;23.332;2023-02-03T11:29:23;95072.81;;;4.65;85.35
13209;BME280;6669;42.678;23.332;2023-02-03T11:31:55;95058.41;;;4.83;82.97
13209;BME280;6669;42.678;23.332;2023-02-03T11:34:27;95048.59;;;5.19;81.09
13209;BME280;6669;42.678;23.332;2023-02-03T11:37:09;95061.41;;;5.31;77.58
13209;BME280;6669;42.678;23.332;2023-02-03T11:39:37;95050.34;;;5.19;76.02
13209;BME280;6669;42.678;23.332;2023-02-03T11:42:21;95043.31;;;5.52;77.05
13209;BME280;6669;42.678;23.332;2023-02-03T11:44:50;95045.69;;;5.34;76.17
13209;BME280;6669;42.678;23.332;2023-02-03T11:47:18;95044.09;;;4.69;73.85
13209;BME280;6669;42.678;23.332;2023-02-03T11:50:16;95054.78;;;4.00;72.95
13209;BME280;6669;42.678;23.332;2023-02-03T11:53:14;95044.06;;;3.83;76.05
13209;BME280;6669;42.678;23.332;2023-02-03T11:56:00;95059.38;;;3.73;74.46
13209;BME280;6669;42.678;23.332;2023-02-03T11:59:10;95049.47;;;3.57;73.03
13209;BME280;6669;42.678;23.332;2023-02-03T12:01:52;95048.50;;;3.81;73.06
13209;BME280;6669;42.678;23.332;2023-02-03T12:04:32;95042.31;;;3.84;72.00
13209;BME280;6669;42.678;23.332;2023-02-03T12:07:27;95044.69;;;3.75;73.83
13209;BME280;6669;42.678;23.332;2023-02-03T12:10:03;95042.09;;;3.75;72.64
13209;BME280;6669;42.678;23.332;2023-02-03T12:12:47;95070.56;;;4.06;68.19
13209;BME280;6669;42.678;23.332;2023-02-03T12:15:32;95097.16;;;3.50;68.72
13209;BME280;6669;42.678;23.332;2023-02-03T12:18:14;95032.56;;;3.21;70.61
13209;BME280;6669;42.678;23.332;2023-02-03T12:20:56;95058.81;;;3.24;71.91
13209;BME280;6669;42.678;23.332;2023-02-03T12:23:37;95049.38;;;3.14;70.98
13209;BME280;6669;42.678;23.332;2023-02-03T12:26:17;95040.38;;;2.97;69.27
13209;BME280;6669;42.678;23.332;2023-02-03T12:28:54;95039.19;;;3.57;67.51
13209;BME280;6669;42.678;23.332;2023-02-03T12:31:32;95037.06;;;3.63;67.05
13209;BME280;6669;42.678;23.332;2023-02-03T12:34:12;95056.84;;;3.62;68.72
13209;BME280;6669;42.678;23.332;2023-02-03T12:36:45;95056.84;;;3.51;68.66
13209;BME280;6669;42.678;23.332;2023-02-03T12:39:19;95053.69;;;3.13;68.90
13209;BME280;6669;42.678;23.332;2023-02-03T12:41:56;95031.03;;;2.96;70.97
13209;BME280;6669;42.678;23.332;2023-02-03T12:44:32;95032.88;;;2.93;73.04
13209;BME280;6669;42.678;23.332;2023-02-03T12:47:06;95035.91;;;2.87;72.59
13209;BME280;6669;42.678;23.332;2023-02-03T12:49:45;95034.03;;;2.89;73.72
13209;BME280;6669;42.678;23.332;2023-02-03T12:52:22;95022.38;;;2.85;74.93
13209;BME280;6669;42.678;23.332;2023-02-03T12:55:01;95037.09;;;3.06;76.38
13209;BME280;6669;42.678;23.332;2023-02-03T12:57:34;95018.88;;;3.32;76.13
13209;BME280;6669;42.678;23.332;2023-02-03T13:00:12;95014.03;;;3.84;74.76
13209;BME280;6669;42.678;23.332;2023-02-03T13:02:58;94987.88;;;3.67;73.87
13209;BME280;6669;42.678;23.332;2023-02-03T13:05:35;95022.84;;;3.36;74.91
13209;BME280;6669;42.678;23.332;2023-02-03T13:08:13;95015.16;;;3.13;77.75
13209;BME280;6669;42.678;23.332;2023-02-03T13:10:47;95011.19;;;3.20;80.50
13209;BME280;6669;42.678;23.332;2023-02-03T13:13:28;94991.34;;;3.22;82.80
13209;BME280;6669;42.678;23.332;2023-02-03T13:16:01;95012.34;;;3.27;84.40
13209;BME280;6669;42.678;23.332;2023-02-03T13:19:05;94995.03;;;3.52;83.45
13209;BME280;6669;42.678;23.332;2023-02-03T13:21:41;94999.94;;;3.67;82.85
13209;BME280;6669;42.678;23.332;2023-02-03T13:24:38;95004.00;;;3.81;82.67
13209;BME280;6669;42.678;23.332;2023-02-03T13:27:27;95000.63;;;3.46;81.90
13209;BME280;6669;42.678;23.332;2023-02-03T13:39:56;94993.47;;;3.72;89.67
13209;BME280;6669;42.678;23.332;2023-02-03T13:42:32;94991.41;;;4.52;84.13
13209;BME280;6669;42.678;23.332;2023-02-03T13:45:26;95001.06;;;4.39;79.46